Time;durP1;ratioP1;P1;durP2;ratioP2;P2;SDS_P1;SDS_P2;PMS_P1;PMS_P2;Temp;Humidity;BMP_temperature;BMP_pressure;BME280_temperature;BME280_humidity;BME280_pressure;Samples;Min_cycle;Max_cycle;Signal;HPM_P1;HPM_P2
2021/01/12 00:02:22;;;;;;;234.23;108.40;;;;;;;-5.70;80.96;99011.80;118757;1150;65063;-80
2021/01/12 00:04:49;;;;;;;218.55;104.50;;;;;;;-5.69;81.27;99000.53;119204;1150;65488;-79
2021/01/12 00:07:21;;;;;;;225.10;104.03;;;;;;;-5.78;80.34;99002.28;119216;1150;65138;-79
2021/01/12 00:09:49;;;;;;;218.00;104.00;;;;;;;-5.77;81.01;98998.80;119231;1150;65104;-78
2021/01/12 00:12:18;;;;;;;220.13;106.57;;;;;;;-5.80;80.63;98997.95;119186;1151;65231;-77
2021/01/12 00:14:45;;;;;;;226.33;106.77;;;;;;;-5.83;80.65;98988.44;119138;1150;65114;-78
2021/01/12 00:17:12;;;;;;;221.07;102.47;;;;;;;-5.81;80.26;98994.50;118393;1150;65046;-79
2021/01/12 00:19:39;;;;;;;225.70;110.25;;;;;;;-5.87;80.47;98991.03;118856;1150;65120;-80
2021/01/12 00:22:16;;;;;;;220.80;104.17;;;;;;;-5.92;80.86;98995.36;118989;1150;65137;-80
2021/01/12 00:24:47;;;;;;;258.80;114.25;;;;;;;-5.93;81.06;98994.50;118966;1150;65040;-78
2021/01/12 00:27:17;;;;;;;290.40;121.50;;;;;;;-5.92;81.04;98993.66;118497;1150;65085;-79
2021/01/12 00:29:45;;;;;;;293.80;129.63;;;;;;;-5.88;80.43;98989.32;119043;1150;65552;-79
2021/01/12 00:32:25;;;;;;;257.00;114.55;;;;;;;-5.89;80.88;98991.06;119217;1150;65118;-79
2021/01/12 00:34:53;;;;;;;242.85;112.55;;;;;;;-5.89;80.12;98985.02;119219;1150;65124;-79
2021/01/12 00:37:21;;;;;;;219.15;101.80;;;;;;;-5.95;80.00;98978.10;119050;1151;65105;-79
2021/01/12 00:39:48;;;;;;;262.20;120.20;;;;;;;-5.97;80.48;98979.86;119290;1150;65118;-79
2021/01/12 00:42:15;;;;;;;242.33;112.70;;;;;;;-5.96;81.04;98974.65;119023;1151;65663;-78
2021/01/12 00:44:41;;;;;;;245.33;112.87;;;;;;;-5.93;80.87;98975.52;119079;1151;65083;-80
2021/01/12 00:47:09;;;;;;;222.63;107.17;;;;;;;-5.98;80.27;98970.33;118826;1150;65130;-78
2021/01/12 00:49:36;;;;;;;258.30;119.13;;;;;;;-6.07;80.67;98971.20;119267;1150;65147;-77
2021/01/12 00:52:10;;;;;;;243.97;113.47;;;;;;;-6.07;80.13;98966.02;118823;1151;65108;-79
2021/01/12 00:54:37;;;;;;;226.23;108.90;;;;;;;-6.08;80.35;98971.20;118917;1151;65134;-80
2021/01/12 00:57:04;;;;;;;211.20;101.43;;;;;;;-6.09;80.98;98972.08;118504;1151;65229;-78
2021/01/12 00:59:32;;;;;;;254.63;115.73;;;;;;;-6.23;80.53;98980.73;119006;1151;65121;-80
2021/01/12 01:02:00;;;;;;;242.40;114.53;;;;;;;-6.34;79.83;98973.83;119235;1150;65133;-80
2021/01/12 01:04:27;;;;;;;234.93;108.53;;;;;;;-6.33;80.76;98973.80;119058;1151;65181;-77
2021/01/12 01:06:54;;;;;;;217.20;103.20;;;;;;;-6.31;80.40;98961.70;119231;1150;65175;-78
2021/01/12 01:09:22;;;;;;;229.47;103.60;;;;;;;-6.32;80.04;98964.29;119266;1151;65107;-78
2021/01/12 01:11:50;;;;;;;217.95;106.00;;;;;;;-6.33;80.28;98963.43;119209;1150;65146;-78
2021/01/12 01:14:18;;;;;;;220.00;99.57;;;;;;;-6.32;80.68;98964.29;118795;1151;65238;-78
2021/01/12 01:16:45;;;;;;;211.63;99.20;;;;;;;-6.35;79.76;98956.52;118864;1150;65098;-78
2021/01/12 01:19:12;;;;;;;209.70;97.50;;;;;;;-6.42;80.53;98955.66;119041;1151;65263;-78
2021/01/12 01:21:39;;;;;;;193.80;96.10;;;;;;;-6.46;79.95;98949.59;119029;1151;65136;-78
2021/01/12 01:24:06;;;;;;;200.20;94.23;;;;;;;-6.48;80.11;98946.12;118988;1151;65130;-78
2021/01/12 01:26:33;;;;;;;200.23;97.40;;;;;;;-6.46;80.51;98951.33;118715;1150;65111;-79
2021/01/12 01:28:59;;;;;;;199.87;93.73;;;;;;;-6.42;80.73;98946.16;118908;1150;65192;-78
2021/01/12 01:31:34;;;;;;;184.65;90.75;;;;;;;-6.40;80.43;98948.73;118616;1150;65149;-79
2021/01/12 01:34:01;;;;;;;189.57;91.33;;;;;;;-6.36;80.85;98941.84;118773;1150;65212;-79
2021/01/12 01:36:27;;;;;;;171.20;87.80;;;;;;;-6.34;80.72;98946.16;118517;1150;65590;-78
2021/01/12 01:38:53;;;;;;;175.90;85.10;;;;;;;-6.29;80.62;98940.95;118577;1151;65100;-79
2021/01/12 01:41:20;;;;;;;170.25;84.60;;;;;;;-6.27;80.56;98945.27;119219;1151;66292;-77
2021/01/12 01:43:46;;;;;;;179.33;85.10;;;;;;;-6.24;81.13;98929.73;119233;1150;65281;-79
2021/01/12 01:46:13;;;;;;;166.70;83.23;;;;;;;-6.24;80.11;98919.36;119176;1150;65076;-80
2021/01/12 01:48:40;;;;;;;158.90;80.93;;;;;;;-6.27;80.69;98910.70;118919;1151;65184;-80
2021/01/12 01:51:07;;;;;;;167.15;83.85;;;;;;;-6.25;80.45;98899.46;119247;1150;65111;-79
2021/01/12 01:53:35;;;;;;;179.35;88.30;;;;;;;-6.24;80.29;98896.02;119019;1151;65159;-79
2021/01/12 01:56:05;;;;;;;170.60;81.80;;;;;;;-6.24;81.16;98896.02;119216;1151;65250;-80
2021/01/12 01:58:32;;;;;;;175.68;87.12;;;;;;;-6.22;81.27;98891.67;119061;1151;65107;-78
2021/01/12 02:00:59;;;;;;;184.17;87.43;;;;;;;-6.23;80.83;98889.95;119276;1150;65121;-80
2021/01/12 02:03:34;;;;;;;183.17;88.93;;;;;;;-6.21;80.23;98887.38;119006;1151;65172;-80
2021/01/12 02:06:08;;;;;;;184.53;85.83;;;;;;;-6.23;80.38;98884.77;119222;1150;65568;-80
2021/01/12 02:09:03;;;;;;;178.63;84.53;;;;;;;-6.22;81.08;98893.41;119217;1150;65182;-79
2021/01/12 02:11:39;;;;;;;179.53;84.57;;;;;;;-6.21;81.30;98875.27;118997;1151;65239;-78
2021/01/12 02:14:12;;;;;;;174.97;83.87;;;;;;;-6.19;80.29;98880.43;119234;1150;65128;-79
2021/01/12 02:16:40;;;;;;;182.67;87.27;;;;;;;-6.20;80.37;98873.53;119264;1150;65152;-78
2021/01/12 02:19:11;;;;;;;177.80;85.73;;;;;;;-6.21;80.84;98875.27;119242;1150;65091;-78
2021/01/12 02:21:44;;;;;;;176.70;86.50;;;;;;;-6.17;80.36;98867.47;119053;1151;65436;-79
2021/01/12 02:24:11;;;;;;;180.40;85.60;;;;;;;-6.25;80.82;98864.89;118857;1150;65032;-79
2021/01/12 02:26:37;;;;;;;192.83;93.33;;;;;;;-6.24;80.24;98864.91;118484;1151;65028;-79
2021/01/12 02:29:04;;;;;;;183.70;88.00;;;;;;;-6.18;81.17;98861.42;119237;1150;65117;-80
2021/01/12 02:31:32;;;;;;;180.35;89.55;;;;;;;-6.19;80.09;98849.31;119202;1151;65046;-81
2021/01/12 02:34:03;;;;;;;175.95;86.45;;;;;;;-6.21;80.21;98856.25;119041;1151;65239;-79
2021/01/12 02:36:31;;;;;;;188.85;90.65;;;;;;;-6.19;80.35;98839.82;119258;1150;65008;-79
2021/01/12 02:38:59;;;;;;;185.60;87.13;;;;;;;-6.21;81.10;98841.55;119036;1151;65123;-78
2021/01/12 02:41:32;;;;;;;183.33;87.97;;;;;;;-6.19;80.55;98837.23;119161;1150;65121;-78
2021/01/12 02:44:02;;;;;;;173.47;87.93;;;;;;;-6.15;80.41;98827.70;118794;1150;65217;-78
2021/01/12 02:46:30;;;;;;;163.53;85.50;;;;;;;-6.08;81.30;98828.53;119104;1150;65152;-78
2021/01/12 02:48:57;;;;;;;163.50;82.83;;;;;;;-6.04;81.10;98822.48;119263;1150;65152;-77
2021/01/12 02:51:24;;;;;;;170.80;86.10;;;;;;;-5.99;81.24;98819.00;118908;1151;65189;-78
2021/01/12 02:53:51;;;;;;;155.40;79.20;;;;;;;-6.04;79.68;98815.55;119076;1150;65115;-80
2021/01/12 02:56:24;;;;;;;161.00;80.07;;;;;;;-6.13;79.59;98814.70;119227;1150;65153;-80
2021/01/12 02:58:51;;;;;;;166.10;79.13;;;;;;;-6.21;79.76;98814.76;118879;1151;65194;-80
2021/01/12 03:01:20;;;;;;;163.30;81.93;;;;;;;-6.30;79.65;98807.84;118599;1150;65567;-78
2021/01/12 03:03:47;;;;;;;154.47;79.30;;;;;;;-6.41;80.03;98812.20;119155;1151;65044;-78
2021/01/12 03:06:13;;;;;;;167.03;79.77;;;;;;;-6.49;79.42;98812.21;119248;1150;65124;-79
2021/01/12 03:08:39;;;;;;;170.43;85.10;;;;;;;-6.55;79.31;98813.97;118989;1151;65105;-78
2021/01/12 03:11:06;;;;;;;172.00;82.92;;;;;;;-6.68;79.97;98803.60;119007;1150;65183;-79
2021/01/12 03:13:32;;;;;;;183.70;87.27;;;;;;;-6.74;79.68;98797.55;118672;1149;65121;-80
2021/01/12 03:15:58;;;;;;;189.40;86.45;;;;;;;-6.76;79.74;98797.56;118540;1150;65228;-79
2021/01/12 03:18:25;;;;;;;180.00;85.90;;;;;;;-6.76;80.24;98794.13;118654;1150;65152;-78
2021/01/12 03:20:51;;;;;;;183.22;91.05;;;;;;;-6.73;80.63;98799.30;118659;1151;65261;-78
2021/01/12 03:23:17;;;;;;;194.80;94.17;;;;;;;-6.70;80.14;98787.19;118896;1150;65290;-78
2021/01/12 03:25:44;;;;;;;195.55;94.85;;;;;;;-6.65;79.97;98789.78;119047;1150;65126;-79
2021/01/12 03:28:10;;;;;;;185.37;98.10;;;;;;;-6.68;79.74;98785.47;119242;1151;65201;-81
2021/01/12 03:30:36;;;;;;;176.80;86.83;;;;;;;-6.65;80.49;98775.09;119238;1151;65120;-80
2021/01/12 03:33:03;;;;;;;189.90;91.93;;;;;;;-6.64;79.85;98771.62;119128;1150;65118;-79
2021/01/12 03:35:30;;;;;;;210.05;92.00;;;;;;;-6.70;80.19;98766.45;118837;1150;65227;-77
2021/01/12 03:37:57;;;;;;;190.43;89.50;;;;;;;-6.70;79.86;98753.50;118793;1150;65102;-78
2021/01/12 03:40:23;;;;;;;191.73;85.97;;;;;;;-6.69;79.66;98747.47;119159;1151;65248;-77
2021/01/12 03:42:50;;;;;;;165.87;79.20;;;;;;;-6.70;79.20;98747.45;118970;1150;65176;-80
2021/01/12 03:45:16;;;;;;;170.80;80.63;;;;;;;-6.72;79.66;98763.00;119092;1150;65159;-77
2021/01/12 03:47:43;;;;;;;171.20;80.77;;;;;;;-6.80;79.15;98748.34;119219;1150;65201;-79
2021/01/12 03:50:09;;;;;;;170.47;81.30;;;;;;;-6.94;79.56;98741.45;119239;1151;65223;-73
2021/01/12 03:52:36;;;;;;;177.30;81.00;;;;;;;-7.06;78.76;98738.86;119116;1150;65207;-78
2021/01/12 03:55:04;;;;;;;179.63;84.23;;;;;;;-7.07;80.02;98731.97;119031;1150;65114;-81
2021/01/12 03:57:31;;;;;;;174.23;82.40;;;;;;;-7.01;79.49;98726.77;118776;1151;65160;-80
2021/01/12 03:59:57;;;;;;;171.67;84.27;;;;;;;-6.96;80.42;98717.27;118952;1151;65284;-76
2021/01/12 04:02:23;;;;;;;178.47;82.20;;;;;;;-6.89;79.86;98721.58;118993;1151;65053;-79
2021/01/12 04:04:50;;;;;;;177.20;83.90;;;;;;;-6.91;79.96;98727.63;119267;1150;65129;-77
2021/01/12 04:07:16;;;;;;;177.17;82.13;;;;;;;-6.90;79.85;98724.16;119271;1150;65088;-78
2021/01/12 04:09:43;;;;;;;169.85;80.53;;;;;;;-6.83;80.14;98725.89;119277;1150;65120;-81
2021/01/12 04:12:09;;;;;;;164.77;80.53;;;;;;;-6.85;78.98;98706.88;119260;1150;65153;-81
2021/01/12 04:14:36;;;;;;;153.60;72.47;;;;;;;-6.87;79.50;98699.14;119021;1151;65120;-80
2021/01/12 04:17:03;;;;;;;152.00;75.25;;;;;;;-6.87;80.05;98690.51;118896;1150;65067;-80
2021/01/12 04:19:29;;;;;;;145.00;74.53;;;;;;;-6.87;79.44;98695.69;118885;1151;65154;-77
2021/01/12 04:21:55;;;;;;;137.47;67.77;;;;;;;-6.94;78.94;98704.33;118933;1150;65134;-80
2021/01/12 04:24:22;;;;;;;142.77;69.27;;;;;;;-7.01;79.42;98698.28;119006;1151;65316;-81
2021/01/12 04:26:48;;;;;;;140.33;69.87;;;;;;;-7.06;79.64;98705.19;119323;1151;65060;-80
2021/01/12 04:29:14;;;;;;;159.33;77.77;;;;;;;-7.02;79.33;98700.89;118730;1151;65283;-80
2021/01/12 04:31:41;;;;;;;157.50;78.83;;;;;;;-7.07;79.00;98696.56;119277;1150;65138;-79
2021/01/12 04:34:07;;;;;;;158.93;79.30;;;;;;;-7.06;78.89;98697.42;119276;1151;65154;-79
2021/01/12 04:36:34;;;;;;;156.57;78.80;;;;;;;-7.07;79.01;98695.70;119269;1150;65169;-80
2021/01/12 04:39:00;;;;;;;151.87;76.77;;;;;;;-7.10;78.85;98693.98;119084;1151;65134;-80
2021/01/12 04:41:27;;;;;;;153.67;76.87;;;;;;;-7.12;79.59;98687.08;119301;1150;65121;-81
2021/01/12 04:43:53;;;;;;;150.85;75.00;;;;;;;-7.12;78.78;98685.34;119296;1151;65144;-80
2021/01/12 04:46:20;;;;;;;158.10;75.93;;;;;;;-7.14;79.12;98684.48;119155;1151;65280;-80
2021/01/12 04:48:49;;;;;;;151.73;77.47;;;;;;;-7.15;78.86;98687.09;119320;1150;65117;-80
2021/01/12 04:51:16;;;;;;;160.85;78.75;;;;;;;-7.09;79.87;98685.34;119116;1151;65079;-80
2021/01/12 04:53:48;;;;;;;154.40;76.63;;;;;;;-7.03;79.69;98674.10;119276;1150;65271;-80
2021/01/12 04:56:20;;;;;;;149.07;74.37;;;;;;;-7.03;78.86;98676.69;119173;1150;65115;-80
2021/01/12 04:58:50;;;;;;;145.53;74.23;;;;;;;-7.07;79.62;98674.98;118993;1151;65351;-79
2021/01/12 05:01:22;;;;;;;157.23;78.60;;;;;;;-7.07;79.25;98662.90;118903;1150;65159;-80
2021/01/12 05:03:51;;;;;;;151.10;77.20;;;;;;;-7.03;79.59;98647.34;118851;1151;65159;-78
2021/01/12 05:06:20;;;;;;;148.80;75.77;;;;;;;-7.02;79.18;98636.14;118549;1150;65188;-78
2021/01/12 05:08:56;;;;;;;139.25;74.30;;;;;;;-7.07;78.78;98643.91;119289;1150;65129;-79
2021/01/12 05:11:31;;;;;;;164.00;84.40;;;;;;;-7.15;78.70;98636.16;118988;1150;65038;-80
2021/01/12 05:14:09;;;;;;;158.03;81.03;;;;;;;-7.24;79.16;98628.42;119225;1151;65230;-80
2021/01/12 05:16:50;;;;;;;160.43;81.07;;;;;;;-7.28;78.61;98618.92;119277;1150;65124;-78
2021/01/12 05:19:24;;;;;;;160.03;83.83;;;;;;;-7.25;79.02;98616.33;119294;1150;65121;-80
2021/01/12 05:21:51;;;;;;;168.43;89.60;;;;;;;-7.23;79.87;98617.19;119255;1151;65129;-79
2021/01/12 05:24:21;;;;;;;169.20;88.10;;;;;;;-7.22;79.76;98616.31;119228;1150;65759;-79
2021/01/12 05:26:49;;;;;;;159.90;86.25;;;;;;;-7.21;79.01;98618.06;119258;1150;65060;-77
2021/01/12 05:29:16;;;;;;;165.60;88.70;;;;;;;-7.20;79.18;98599.06;118877;1150;65598;-78
2021/01/12 05:31:45;;;;;;;162.30;88.70;;;;;;;-7.16;79.51;98602.48;119020;1150;65108;-78
2021/01/12 05:34:13;;;;;;;176.18;92.33;;;;;;;-7.14;79.98;98591.27;119317;1150;65169;-78
2021/01/12 05:36:50;;;;;;;169.45;89.85;;;;;;;-7.08;79.70;98596.45;119025;1151;65277;-78
2021/01/12 05:39:22;;;;;;;180.45;91.55;;;;;;;-7.07;79.89;98597.30;118954;1151;65187;-80
2021/01/12 05:41:50;;;;;;;164.30;89.70;;;;;;;-7.07;79.34;98587.80;119225;1150;65146;-78
2021/01/12 05:44:20;;;;;;;160.13;84.87;;;;;;;-7.07;79.26;98595.56;118444;1150;65257;-80
2021/01/12 05:46:48;;;;;;;;;;;;;;;-7.04;79.86;98589.52;118670;1150;65129;-79
2021/01/12 05:49:18;;;;;;;170.33;83.63;;;;;;;-7.00;79.15;98600.72;118598;1150;65254;-80
2021/01/12 05:51:47;;;;;;;163.57;85.90;;;;;;;-6.99;79.40;98600.73;118858;1151;65300;-79
2021/01/12 05:54:27;;;;;;;167.75;88.03;;;;;;;-7.10;79.71;98594.73;119050;1150;65129;-80
2021/01/12 05:57:01;;;;;;;164.27;86.03;;;;;;;-7.07;79.21;98592.98;119254;1151;65117;-80
2021/01/12 05:59:32;;;;;;;165.50;86.90;;;;;;;-7.02;78.91;98582.61;119242;1150;65127;-80
2021/01/12 06:02:00;;;;;;;166.75;90.20;;;;;;;;;;119259;1149;65129;-80
2021/01/12 06:04:27;;;;;;;166.05;87.05;;;;;;;-7.05;79.48;98579.19;119275;1150;65108;-78
2021/01/12 06:06:56;;;;;;;167.53;84.93;;;;;;;-7.05;79.06;98566.23;119114;1150;65138;-81
2021/01/12 06:09:24;;;;;;;166.10;85.63;;;;;;;-7.03;79.35;98570.52;119035;1150;65097;-81
2021/01/12 06:11:53;;;;;;;162.20;84.07;;;;;;;-6.97;79.84;98573.09;119244;1151;65121;-79
2021/01/12 06:14:29;;;;;;;167.18;86.45;;;;;;;-6.90;79.71;98566.15;119243;1151;65111;-79
2021/01/12 06:17:00;;;;;;;163.40;86.20;;;;;;;-6.94;79.61;98557.55;119242;1150;65111;-80
2021/01/12 06:19:29;;;;;;;162.70;88.70;;;;;;;-6.93;79.88;98554.07;119232;1150;65227;-79
2021/01/12 06:21:55;;;;;;;159.27;84.37;;;;;;;-6.91;79.22;98551.48;119228;1151;65121;-78
2021/01/12 06:24:45;;;;;;;155.70;83.15;;;;;;;-6.90;79.34;98543.73;119269;1150;65101;-80
2021/01/12 06:27:14;;;;;;;129.60;71.80;;;;;;;-6.81;79.55;98542.81;119219;1150;65124;-78
2021/01/12 06:29:45;;;;;;;159.53;79.47;;;;;;;-6.70;79.54;98534.98;119269;1151;65069;-79
2021/01/12 06:32:32;;;;;;;135.50;69.97;;;;;;;-6.65;79.75;98533.23;118851;1151;65127;-80
2021/01/12 06:35:09;;;;;;;142.53;78.27;;;;;;;-6.53;79.44;98534.88;119099;1150;65121;-79
2021/01/12 06:37:42;;;;;;;153.45;80.50;;;;;;;-6.53;79.65;98537.47;118666;1151;65134;-79
2021/01/12 06:40:11;;;;;;;175.17;88.83;;;;;;;-6.59;79.27;98530.59;118687;1150;65070;-78
2021/01/12 06:42:39;;;;;;;182.55;96.50;;;;;;;-6.63;79.72;98527.17;118754;1151;65063;-78
2021/01/12 06:45:08;;;;;;;155.43;85.80;;;;;;;-6.57;79.97;98530.59;119065;1151;65127;-79
2021/01/12 06:47:35;;;;;;;170.77;90.30;;;;;;;-6.50;79.92;98527.08;119015;1151;65122;-79
2021/01/12 06:50:13;;;;;;;173.77;89.37;;;;;;;-6.48;79.71;98525.34;119008;1151;65207;-80
2021/01/12 06:52:47;;;;;;;173.43;90.47;;;;;;;-6.52;79.06;98531.43;119255;1151;65257;-77
2021/01/12 06:55:16;;;;;;;166.57;83.57;;;;;;;-6.51;79.29;98520.18;119288;1150;65057;-80
2021/01/12 06:57:48;;;;;;;158.52;84.40;;;;;;;-6.47;79.56;98514.98;119123;1151;65082;-78
2021/01/12 07:00:16;;;;;;;150.57;82.23;;;;;;;-6.47;79.72;98504.61;118998;1151;65146;-80
2021/01/12 07:02:46;;;;;;;149.43;82.93;;;;;;;-6.47;78.87;98508.94;119061;1150;65149;-80
2021/01/12 07:05:14;;;;;;;;;;;;;;;-6.45;79.27;98508.06;119254;1150;65136;-79
2021/01/12 07:07:49;;;;;;;149.63;82.73;;;;;;;-6.37;79.78;98507.12;119203;1150;65157;-79
2021/01/12 07:10:21;;;;;;;149.90;81.83;;;;;;;-6.30;79.02;98499.29;118987;1151;65162;-78
2021/01/12 07:12:48;;;;;;;148.27;81.03;;;;;;;-6.24;79.47;98501.86;119283;1150;65124;-79
2021/01/12 07:15:19;;;;;;;153.03;81.80;;;;;;;-6.21;78.88;98495.78;119288;1150;65072;-79
2021/01/12 07:17:54;;;;;;;143.17;78.70;;;;;;;-6.12;78.99;98498.29;119202;1150;65104;-79
2021/01/12 07:20:25;;;;;;;147.87;78.53;;;;;;;-5.99;79.25;98493.86;119014;1151;65135;-80
2021/01/12 07:23:04;;;;;;;137.93;80.27;;;;;;;-5.87;79.26;98487.66;119337;1150;65074;-79
2021/01/12 07:25:44;;;;;;;146.75;79.45;;;;;;;-5.71;79.81;98490.96;119284;1151;65129;-79
2021/01/12 07:28:20;;;;;;;139.07;77.07;;;;;;;-5.65;79.20;98489.18;119236;1151;65104;-79
2021/01/12 07:30:48;;;;;;;134.40;71.03;;;;;;;-5.56;79.62;98485.62;119248;1151;65129;-79
2021/01/12 07:33:28;;;;;;;135.67;76.67;;;;;;;-5.50;79.73;98475.19;119058;1151;65471;-79
2021/01/12 07:35:57;;;;;;;130.33;72.63;;;;;;;-5.35;79.53;98468.94;119242;1150;65084;-79
2021/01/12 07:38:25;;;;;;;122.27;67.80;;;;;;;-5.18;79.43;98469.61;119304;1150;65124;-79
2021/01/12 07:40:58;;;;;;;133.60;76.65;;;;;;;-5.08;78.89;98463.42;119284;1151;65124;-78
2021/01/12 07:43:26;;;;;;;126.00;66.83;;;;;;;-4.95;78.79;98461.53;118683;1150;65117;-78
2021/01/12 07:45:54;;;;;;;127.97;66.83;;;;;;;-4.84;79.66;98448.39;119031;1151;65167;-80
2021/01/12 07:48:22;;;;;;;104.07;52.70;;;;;;;-4.67;79.31;98438.59;119098;1150;65123;-78
2021/01/12 07:50:51;;;;;;;99.17;56.20;;;;;;;-4.54;78.95;98439.27;118736;1150;65097;-80
2021/01/12 07:53:19;;;;;;;84.30;42.73;;;;;;;-4.41;79.06;98427.78;118931;1150;65104;-78
2021/01/12 07:55:47;;;;;;;71.00;38.50;;;;;;;-4.25;79.48;98428.39;119217;1150;65097;-78
2021/01/12 07:58:15;;;;;;;65.73;35.10;;;;;;;-4.13;79.58;98423.86;119041;1151;65274;-79
2021/01/12 08:00:42;;;;;;;68.83;35.30;;;;;;;-4.01;79.58;98419.30;119249;1150;65129;-79
2021/01/12 08:03:09;;;;;;;89.35;43.45;;;;;;;-3.83;79.43;98417.27;119330;1150;65118;-79
2021/01/12 08:05:35;;;;;;;83.40;40.63;;;;;;;-3.73;79.24;98418.81;119215;1151;65129;-78
2021/01/12 08:08:06;;;;;;;66.60;34.77;;;;;;;-3.59;79.03;98408.98;119253;1151;65635;-79
2021/01/12 08:10:36;;;;;;;67.37;36.03;;;;;;;-3.41;78.40;98402.55;119259;1150;65147;-80
2021/01/12 08:13:08;;;;;;;68.00;35.10;;;;;;;-3.24;78.98;98407.41;119059;1150;65179;-80
2021/01/12 08:15:40;;;;;;;70.80;37.35;;;;;;;-3.03;78.32;98410.45;119372;1150;65108;-79
2021/01/12 08:18:11;;;;;;;66.27;36.40;;;;;;;-2.86;79.04;98403.13;119007;1151;65129;-78
2021/01/12 08:20:41;;;;;;;80.13;39.53;;;;;;;-2.66;78.86;98400.04;118840;1150;65130;-81
2021/01/12 08:23:11;;;;;;;78.75;38.85;;;;;;;-2.51;78.38;98399.69;119277;1150;65124;-80
2021/01/12 08:25:39;;;;;;;107.15;50.90;;;;;;;-2.34;78.23;98401.02;119008;1151;65127;-80
2021/01/12 08:28:08;;;;;;;127.77;64.53;;;;;;;-2.23;78.15;98381.61;119233;1150;65133;-80
2021/01/12 08:30:35;;;;;;;115.00;64.83;;;;;;;-2.09;78.39;98385.61;119050;1151;65242;-78
2021/01/12 08:33:06;;;;;;;118.27;67.83;;;;;;;-1.90;77.72;98383.38;119027;1151;65364;-80
2021/01/12 08:35:38;;;;;;;133.80;79.60;;;;;;;-1.70;77.48;98385.46;119247;1150;65137;-80
2021/01/12 08:38:10;;;;;;;126.70;70.30;;;;;;;-1.45;77.90;98388.23;119275;1150;65129;-79
2021/01/12 08:40:37;;;;;;;97.97;52.90;;;;;;;-1.22;77.11;98387.58;119303;1151;65124;-79
2021/01/12 08:43:15;;;;;;;100.10;50.77;;;;;;;-1.06;77.35;98386.22;119001;1151;65052;-79
2021/01/12 08:45:42;;;;;;;73.13;39.63;;;;;;;-0.84;76.97;98389.06;119247;1150;65149;-79
2021/01/12 08:48:17;;;;;;;69.70;37.80;;;;;;;-0.68;75.64;98386.83;119053;1151;65221;-79
2021/01/12 08:50:45;;;;;;;75.07;37.73;;;;;;;-0.54;75.50;98391.61;119250;1150;65124;-79
2021/01/12 08:53:19;;;;;;;67.20;36.55;;;;;;;-0.43;76.05;98393.88;119229;1150;65126;-79
2021/01/12 08:55:45;;;;;;;74.50;38.37;;;;;;;-0.35;75.02;98395.34;119268;1150;65121;-79
2021/01/12 08:58:12;;;;;;;76.27;40.00;;;;;;;-0.27;75.03;98389.85;118983;1151;65417;-78
2021/01/12 09:00:41;;;;;;;79.90;41.07;;;;;;;-0.20;75.54;98374.81;119040;1151;65230;-78
2021/01/12 09:03:12;;;;;;;75.53;41.77;;;;;;;-0.10;74.79;98374.45;119208;1150;65121;-78
2021/01/12 09:05:40;;;;;;;70.67;40.27;;;;;;;-0.04;74.80;98365.52;119024;1150;65114;-79
2021/01/12 09:08:12;;;;;;;74.63;39.97;;;;;;;-0.01;75.06;98363.64;119269;1150;65104;-79
2021/01/12 09:10:40;;;;;;;80.55;44.25;;;;;;;0.03;74.76;98360.91;119194;1150;65265;-78
2021/01/12 09:13:10;;;;;;;82.90;43.57;;;;;;;0.07;75.21;98352.05;119219;1149;65228;-78
2021/01/12 09:15:39;;;;;;;84.65;41.75;;;;;;;0.13;75.43;98355.33;119233;1151;65120;-78
2021/01/12 09:18:19;;;;;;;74.63;41.87;;;;;;;0.25;75.42;98345.31;119264;1150;65124;-79
2021/01/12 09:20:54;;;;;;;;;;;;;;;0.30;74.75;98338.98;119044;1151;65146;-79
2021/01/12 09:23:22;;;;;;;62.77;33.93;;;;;;;0.33;74.72;98341.50;119173;1151;65080;-79
2021/01/12 09:26:10;;;;;;;61.00;34.75;;;;;;;0.34;74.78;98344.97;119236;1148;65135;-78
2021/01/12 09:28:39;;;;;;;66.97;39.20;;;;;;;0.31;74.60;98331.98;119240;1150;65076;-79
2021/01/12 09:31:13;;;;;;;56.15;32.75;;;;;;;0.33;74.27;98323.15;119261;1150;65124;-79
2021/01/12 09:33:53;;;;;;;48.65;27.25;;;;;;;0.35;73.85;98315.25;119262;1150;65146;-79
2021/01/12 09:36:21;;;;;;;59.42;32.67;;;;;;;0.37;74.07;98314.28;119271;1150;65114;-79
2021/01/12 09:38:53;;;;;;;65.97;33.97;;;;;;;0.42;74.62;98309.72;118994;1150;65184;-79
2021/01/12 09:41:25;;;;;;;63.90;35.00;;;;;;;0.51;74.22;98307.67;119267;1151;65139;-78
2021/01/12 09:43:54;;;;;;;67.37;35.27;;;;;;;0.57;74.37;98303.03;119229;1150;65121;-78
2021/01/12 09:46:21;;;;;;;66.67;35.60;;;;;;;0.62;74.71;98295.00;119304;1150;65147;-78
2021/01/12 09:48:49;;;;;;;74.80;39.43;;;;;;;0.70;75.00;98286.84;119221;1151;65297;-80
2021/01/12 09:51:16;;;;;;;82.30;45.37;;;;;;;0.81;74.62;98295.99;118988;1150;65059;-78
2021/01/12 09:53:47;;;;;;;89.00;49.55;;;;;;;0.91;74.48;98279.91;119305;1150;65160;-78
2021/01/12 09:56:15;;;;;;;93.30;49.57;;;;;;;0.99;74.31;98280.45;119295;1150;65134;-79
2021/01/12 09:58:45;;;;;;;88.20;46.87;;;;;;;1.07;74.21;98273.13;119226;1150;65554;-78
2021/01/12 10:01:16;;;;;;;83.25;44.35;;;;;;;1.15;74.23;98273.67;119198;1150;65570;-79
2021/01/12 10:03:43;;;;;;;89.27;45.80;;;;;;;1.23;74.53;98261.09;118984;1151;65244;-78
2021/01/12 10:06:17;;;;;;;83.10;43.50;;;;;;;1.29;74.84;98252.98;119221;1150;65129;-79
2021/01/12 10:08:46;;;;;;;82.33;44.93;;;;;;;1.35;74.50;98244.00;119249;1151;65213;-80
2021/01/12 10:11:14;;;;;;;83.70;45.27;;;;;;;1.43;74.10;98243.67;119274;1150;65193;-79
2021/01/12 10:13:43;;;;;;;82.87;43.87;;;;;;;1.50;74.70;98232.86;119014;1151;65305;-79
2021/01/12 10:16:10;;;;;;;87.10;46.65;;;;;;;1.54;74.10;98228.31;119242;1150;65104;-79
2021/01/12 10:18:36;;;;;;;95.03;50.37;;;;;;;1.53;74.18;98224.84;118920;1151;65204;-78
2021/01/12 10:21:04;;;;;;;93.13;50.80;;;;;;;1.56;74.09;98223.86;119246;1151;65139;-79
2021/01/12 10:23:30;;;;;;;93.60;50.73;;;;;;;1.56;73.39;98210.73;119263;1150;65111;-80
2021/01/12 10:25:57;;;;;;;93.50;52.30;;;;;;;1.59;73.66;98210.59;119068;1151;65264;-80
2021/01/12 10:28:23;;;;;;;86.13;47.93;;;;;;;1.63;74.13;98204.27;118811;1151;65130;-78
2021/01/12 10:30:53;;;;;;;80.92;45.90;;;;;;;1.63;73.73;98212.14;119233;1150;65121;-80
2021/01/12 10:33:19;;;;;;;86.00;48.20;;;;;;;1.56;73.41;98208.10;119137;1150;65185;-79
2021/01/12 10:35:46;;;;;;;86.43;48.83;;;;;;;1.53;73.22;98205.61;119259;1151;65031;-79
2021/01/12 10:38:12;;;;;;;95.13;49.47;;;;;;;1.51;73.16;98207.45;119219;1150;65165;-78
2021/01/12 10:40:39;;;;;;;89.27;50.00;;;;;;;1.52;72.94;98206.52;119249;1151;65135;-77
2021/01/12 10:43:05;;;;;;;88.50;48.20;;;;;;;1.54;73.11;98202.05;118999;1151;65462;-78
2021/01/12 10:45:32;;;;;;;93.03;50.83;;;;;;;1.58;72.90;98201.02;119049;1150;65215;-79
2021/01/12 10:47:58;;;;;;;96.07;50.27;;;;;;;1.67;72.91;98202.38;119012;1151;65130;-79
2021/01/12 10:50:25;;;;;;;98.47;51.03;;;;;;;1.86;73.13;98197.16;119020;1151;65259;-79
2021/01/12 10:52:51;;;;;;;93.37;50.97;;;;;;;2.05;72.78;98186.67;119252;1150;65213;-78
2021/01/12 10:55:20;;;;;;;76.47;42.37;;;;;;;2.20;72.39;98172.83;119224;1151;65118;-79
2021/01/12 10:57:47;;;;;;;60.70;33.80;;;;;;;2.44;71.90;98172.61;119248;1150;65104;-78
2021/01/12 11:00:15;;;;;;;50.13;28.13;;;;;;;2.62;71.18;98162.06;118989;1151;65187;-78
2021/01/12 11:02:42;;;;;;;44.35;26.15;;;;;;;2.81;71.00;98163.80;118943;1150;65064;-78
2021/01/12 11:05:09;;;;;;;33.63;17.70;;;;;;;2.98;69.31;98165.63;119216;1150;65507;-78
2021/01/12 11:07:39;;;;;;;23.10;14.25;;;;;;;3.11;68.50;98156.19;119268;1151;65236;-79
2021/01/12 11:10:07;;;;;;;19.87;11.70;;;;;;;3.26;68.61;98152.75;119272;1150;65111;-78
2021/01/12 11:12:34;;;;;;;21.53;13.00;;;;;;;3.33;69.39;98150.67;119043;1151;65554;-78
2021/01/12 11:15:01;;;;;;;17.40;9.85;;;;;;;3.35;68.01;98137.44;118959;1151;65172;-79
2021/01/12 11:17:27;;;;;;;14.70;8.60;;;;;;;3.27;65.23;98136.05;119213;1150;65132;-78